sensor_id;sensor_type;location;lat;lon;timestamp;pressure;altitude;pressure_sealevel;temperature;humidity
71299;BME280;59083;47.974;21.722;2023-01-29T00:02:42;101068.66;;;-0.31;88.32
71299;BME280;59083;47.974;21.722;2023-01-29T00:05:44;101069.00;;;-0.23;88.03
71299;BME280;59083;47.974;21.722;2023-01-29T00:08:45;101074.25;;;-0.23;87.78
71299;BME280;59083;47.974;21.722;2023-01-29T00:11:46;101074.66;;;-0.29;88.13
71299;BME280;59083;47.974;21.722;2023-01-29T00:14:48;101074.34;;;-0.25;88.16
71299;BME280;59083;47.974;21.722;2023-01-29T00:17:49;101068.88;;;-0.22;87.85
71299;BME280;59083;47.974;21.722;2023-01-29T00:20:50;101079.50;;;-0.23;88.35
71299;BME280;59083;47.974;21.722;2023-01-29T00:23:53;101077.91;;;-0.26;88.17
71299;BME280;59083;47.974;21.722;2023-01-29T00:26:55;101080.28;;;-0.23;88.27
71299;BME280;59083;47.974;21.722;2023-01-29T00:29:56;101078.53;;;-0.22;88.30
71299;BME280;59083;47.974;21.722;2023-01-29T00:33:12;101076.12;;;-0.25;88.19
71299;BME280;59083;47.974;21.722;2023-01-29T00:36:15;101079.50;;;-0.23;88.22
71299;BME280;59083;47.974;21.722;2023-01-29T00:39:17;101073.19;;;-0.21;88.22
71299;BME280;59083;47.974;21.722;2023-01-29T00:42:24;101084.31;;;-0.17;87.84
71299;BME280;59083;47.974;21.722;2023-01-29T00:45:44;101086.19;;;-0.19;87.91
71299;BME280;59083;47.974;21.722;2023-01-29T00:48:46;101083.69;;;-0.08;87.71
71299;BME280;59083;47.974;21.722;2023-01-29T00:51:47;101095.63;;;-0.04;87.58
71299;BME280;59083;47.974;21.722;2023-01-29T00:55:08;101096.56;;;-0.05;87.36
71299;BME280;59083;47.974;21.722;2023-01-29T00:58:10;101093.56;;;0.01;87.40
71299;BME280;59083;47.974;21.722;2023-01-29T01:01:11;101098.19;;;0.10;87.03
71299;BME280;59083;47.974;21.722;2023-01-29T01:04:12;101098.09;;;0.24;86.41
71299;BME280;59083;47.974;21.722;2023-01-29T01:07:13;101095.91;;;0.31;86.24
71299;BME280;59083;47.974;21.722;2023-01-29T01:10:21;101102.59;;;0.35;85.85
71299;BME280;59083;47.974;21.722;2023-01-29T01:13:22;101095.28;;;0.27;85.96
71299;BME280;59083;47.974;21.722;2023-01-29T01:16:24;101108.69;;;0.35;85.42
71299;BME280;59083;47.974;21.722;2023-01-29T01:19:27;101120.22;;;0.33;85.85
71299;BME280;59083;47.974;21.722;2023-01-29T01:22:28;101106.38;;;0.31;85.38
71299;BME280;59083;47.974;21.722;2023-01-29T01:25:29;101115.59;;;0.36;85.45
71299;BME280;59083;47.974;21.722;2023-01-29T01:28:30;101113.09;;;0.48;85.15
71299;BME280;59083;47.974;21.722;2023-01-29T01:31:32;101107.13;;;0.46;85.26
71299;BME280;59083;47.974;21.722;2023-01-29T01:34:33;101118.75;;;0.41;85.26
71299;BME280;59083;47.974;21.722;2023-01-29T01:37:35;101117.19;;;0.52;84.87
71299;BME280;59083;47.974;21.722;2023-01-29T01:40:44;101121.06;;;0.59;84.85
71299;BME280;59083;47.974;21.722;2023-01-29T01:43:56;101113.94;;;0.61;84.70
71299;BME280;59083;47.974;21.722;2023-01-29T01:46:59;101126.72;;;0.53;84.62
71299;BME280;59083;47.974;21.722;2023-01-29T01:50:08;101117.72;;;0.57;84.53
71299;BME280;59083;47.974;21.722;2023-01-29T01:53:18;101109.44;;;0.37;85.19
71299;BME280;59083;47.974;21.722;2023-01-29T01:56:25;101111.41;;;0.47;85.45
71299;BME280;59083;47.974;21.722;2023-01-29T01:59:27;101111.84;;;0.53;85.09
71299;BME280;59083;47.974;21.722;2023-01-29T02:02:29;101123.38;;;0.51;84.74
71299;BME280;59083;47.974;21.722;2023-01-29T02:05:49;101126.94;;;0.50;84.70
71299;BME280;59083;47.974;21.722;2023-01-29T02:09:16;101123.16;;;0.41;84.98
71299;BME280;59083;47.974;21.722;2023-01-29T02:12:35;101132.91;;;0.52;84.85
71299;BME280;59083;47.974;21.722;2023-01-29T02:15:37;101139.00;;;0.52;85.03
71299;BME280;59083;47.974;21.722;2023-01-29T02:18:42;101138.91;;;0.54;84.48
71299;BME280;59083;47.974;21.722;2023-01-29T02:32:37;101147.28;;;0.46;84.56
71299;BME280;59083;47.974;21.722;2023-01-29T02:35:47;101142.03;;;0.59;84.66
71299;BME280;59083;47.974;21.722;2023-01-29T02:39:16;101148.75;;;0.63;84.31
71299;BME280;59083;47.974;21.722;2023-01-29T02:42:27;101142.03;;;0.46;84.49
71299;BME280;59083;47.974;21.722;2023-01-29T02:52:19;101153.56;;;0.69;84.28
71299;BME280;59083;47.974;21.722;2023-01-29T02:55:27;101155.37;;;0.56;84.14
71299;BME280;59083;47.974;21.722;2023-01-29T02:58:38;101156.09;;;0.58;84.69
71299;BME280;59083;47.974;21.722;2023-01-29T03:01:52;101145.19;;;0.64;84.28
71299;BME280;59083;47.974;21.722;2023-01-29T03:04:59;101154.12;;;0.74;84.16
71299;BME280;59083;47.974;21.722;2023-01-29T03:08:06;101157.56;;;0.62;84.23
71299;BME280;59083;47.974;21.722;2023-01-29T03:11:12;101165.22;;;0.65;84.19
71299;BME280;59083;47.974;21.722;2023-01-29T03:14:23;101169.53;;;0.66;84.14
71299;BME280;59083;47.974;21.722;2023-01-29T03:17:35;101166.91;;;0.66;83.85
71299;BME280;59083;47.974;21.722;2023-01-29T03:20:43;101166.38;;;0.61;84.11
71299;BME280;59083;47.974;21.722;2023-01-29T03:23:48;101178.34;;;0.65;84.10
71299;BME280;59083;47.974;21.722;2023-01-29T03:27:09;101174.78;;;0.66;83.71
71299;BME280;59083;47.974;21.722;2023-01-29T03:30:33;101173.31;;;0.62;84.04
71299;BME280;59083;47.974;21.722;2023-01-29T03:34:20;101171.81;;;0.58;83.92
71299;BME280;59083;47.974;21.722;2023-01-29T03:37:35;101172.16;;;0.66;83.81
71299;BME280;59083;47.974;21.722;2023-01-29T03:40:52;101184.94;;;0.58;83.68
71299;BME280;59083;47.974;21.722;2023-01-29T03:44:14;101183.56;;;0.65;83.81
71299;BME280;59083;47.974;21.722;2023-01-29T03:47:21;101183.16;;;0.71;84.12
71299;BME280;59083;47.974;21.722;2023-01-29T03:50:51;101178.16;;;0.68;83.83
71299;BME280;59083;47.974;21.722;2023-01-29T03:54:27;101189.34;;;0.70;83.36
71299;BME280;59083;47.974;21.722;2023-01-29T03:57:59;101192.19;;;0.67;83.14
71299;BME280;59083;47.974;21.722;2023-01-29T04:01:26;101185.69;;;0.60;83.09
71299;BME280;59083;47.974;21.722;2023-01-29T04:04:36;101185.69;;;0.60;83.30
71299;BME280;59083;47.974;21.722;2023-01-29T04:07:39;101187.13;;;0.64;83.02
71299;BME280;59083;47.974;21.722;2023-01-29T04:10:42;101190.69;;;0.63;82.70
71299;BME280;59083;47.974;21.722;2023-01-29T04:13:45;101185.25;;;0.66;82.92
71299;BME280;59083;47.974;21.722;2023-01-29T04:16:53;101181.28;;;0.73;82.80
71299;BME280;59083;47.974;21.722;2023-01-29T04:19:58;101180.88;;;0.79;82.59
71299;BME280;59083;47.974;21.722;2023-01-29T04:23:01;101181.69;;;0.67;82.64
71299;BME280;59083;47.974;21.722;2023-01-29T04:43:28;101176.22;;;0.70;81.53
71299;BME280;59083;47.974;21.722;2023-01-29T04:46:39;101170.38;;;0.66;81.78
71299;BME280;59083;47.974;21.722;2023-01-29T04:59:41;101178.75;;;0.59;82.02
71299;BME280;59083;47.974;21.722;2023-01-29T05:02:46;101169.41;;;0.55;82.03
71299;BME280;59083;47.974;21.722;2023-01-29T05:05:50;101173.50;;;0.59;81.85
71299;BME280;59083;47.974;21.722;2023-01-29T05:08:52;101173.31;;;0.62;81.83
71299;BME280;59083;47.974;21.722;2023-01-29T05:11:55;101171.41;;;0.64;81.94
71299;BME280;59083;47.974;21.722;2023-01-29T05:15:00;101174.78;;;0.66;81.67
71299;BME280;59083;47.974;21.722;2023-01-29T05:18:02;101173.31;;;0.62;81.93
71299;BME280;59083;47.974;21.722;2023-01-29T05:21:06;101167.66;;;0.68;81.75
71299;BME280;59083;47.974;21.722;2023-01-29T05:27:21;101168.47;;;0.56;81.92
71299;BME280;59083;47.974;21.722;2023-01-29T05:30:48;101167.53;;;0.57;81.77
71299;BME280;59083;47.974;21.722;2023-01-29T05:33:49;101176.66;;;0.64;81.45
71299;BME280;59083;47.974;21.722;2023-01-29T05:36:50;101178.97;;;0.56;81.92
71299;BME280;59083;47.974;21.722;2023-01-29T05:39:52;101176.66;;;0.64;81.63
71299;BME280;59083;47.974;21.722;2023-01-29T05:42:53;101176.47;;;0.67;81.45
71299;BME280;59083;47.974;21.722;2023-01-29T05:45:59;101185.69;;;0.60;81.54
71299;BME280;59083;47.974;21.722;2023-01-29T05:49:00;101188.63;;;0.68;81.12
71299;BME280;59083;47.974;21.722;2023-01-29T05:52:01;101193.03;;;0.55;81.19
71299;BME280;59083;47.974;21.722;2023-01-29T05:55:03;101190.69;;;0.63;81.26
71299;BME280;59083;47.974;21.722;2023-01-29T05:58:05;101197.44;;;0.67;80.76
71299;BME280;59083;47.974;21.722;2023-01-29T06:01:08;101195.75;;;0.66;80.67
71299;BME280;59083;47.974;21.722;2023-01-29T06:04:09;101195.75;;;0.78;80.71
71299;BME280;59083;47.974;21.722;2023-01-29T06:07:10;101203.72;;;0.77;80.67
71299;BME280;59083;47.974;21.722;2023-01-29T06:10:14;101205.72;;;0.73;79.87
71299;BME280;59083;47.974;21.722;2023-01-29T06:13:16;101213.88;;;0.69;80.79
71299;BME280;59083;47.974;21.722;2023-01-29T06:16:17;101213.16;;;0.67;80.20
71299;BME280;59083;47.974;21.722;2023-01-29T06:19:18;101215.47;;;0.59;80.29
71299;BME280;59083;47.974;21.722;2023-01-29T06:22:20;101220.28;;;0.65;79.82
71299;BME280;59083;47.974;21.722;2023-01-29T06:25:21;101218.31;;;0.56;80.06
71299;BME280;59083;47.974;21.722;2023-01-29T06:28:23;101231.41;;;0.56;80.02
71299;BME280;59083;47.974;21.722;2023-01-29T06:31:24;101241.94;;;0.68;79.52
71299;BME280;59083;47.974;21.722;2023-01-29T06:34:25;101239.59;;;0.64;79.69
71299;BME280;59083;47.974;21.722;2023-01-29T06:37:26;101241.28;;;0.65;79.29
71299;BME280;59083;47.974;21.722;2023-01-29T06:40:28;101239.00;;;0.73;79.07
71299;BME280;59083;47.974;21.722;2023-01-29T06:43:29;101237.94;;;0.75;79.30
71299;BME280;59083;47.974;21.722;2023-01-29T06:46:30;101235.28;;;0.63;78.57
71299;BME280;59083;47.974;21.722;2023-01-29T06:49:31;101239.59;;;0.64;78.61
71299;BME280;59083;47.974;21.722;2023-01-29T06:52:33;101248.31;;;0.77;78.75
71299;BME280;59083;47.974;21.722;2023-01-29T06:55:34;101247.97;;;0.69;79.02
71299;BME280;59083;47.974;21.722;2023-01-29T06:58:36;101249.22;;;0.63;78.77
71299;BME280;59083;47.974;21.722;2023-01-29T07:01:38;101253.78;;;0.74;78.82
71299;BME280;59083;47.974;21.722;2023-01-29T07:04:44;101257.88;;;0.78;78.73
71299;BME280;59083;47.974;21.722;2023-01-29T07:07:45;101248.53;;;0.74;78.40
71299;BME280;59083;47.974;21.722;2023-01-29T07:10:46;101253.66;;;0.75;78.78
71299;BME280;59083;47.974;21.722;2023-01-29T07:13:47;101244.44;;;0.70;79.17
71299;BME280;59083;47.974;21.722;2023-01-29T07:16:49;101242.97;;;0.66;79.41
71299;BME280;59083;47.974;21.722;2023-01-29T07:19:50;101243.69;;;0.55;79.28
71299;BME280;59083;47.974;21.722;2023-01-29T07:22:51;101243.81;;;0.66;77.97
71299;BME280;59083;47.974;21.722;2023-01-29T07:25:53;101250.59;;;0.69;77.96
71299;BME280;59083;47.974;21.722;2023-01-29T07:28:54;101248.81;;;0.69;78.18
71299;BME280;59083;47.974;21.722;2023-01-29T07:31:55;101246.44;;;0.66;78.53
71299;BME280;59083;47.974;21.722;2023-01-29T07:34:56;101252.50;;;0.67;78.95
71299;BME280;59083;47.974;21.722;2023-01-29T07:37:58;101256.25;;;0.63;79.26
71299;BME280;59083;47.974;21.722;2023-01-29T07:40:59;101253.09;;;0.58;79.32
71299;BME280;59083;47.974;21.722;2023-01-29T07:44:00;101247.78;;;0.72;79.27
71299;BME280;59083;47.974;21.722;2023-01-29T07:47:01;101256.19;;;0.77;79.45
71299;BME280;59083;47.974;21.722;2023-01-29T07:50:03;101255.56;;;0.86;79.35
71299;BME280;59083;47.974;21.722;2023-01-29T07:53:05;101250.53;;;0.83;79.54
71299;BME280;59083;47.974;21.722;2023-01-29T07:56:07;101250.13;;;0.89;79.38
71299;BME280;59083;47.974;21.722;2023-01-29T07:59:08;101249.69;;;0.82;79.95
71299;BME280;59083;47.974;21.722;2023-01-29T08:02:09;101252.31;;;0.82;80.25
71299;BME280;59083;47.974;21.722;2023-01-29T08:05:10;101235.44;;;0.74;80.20
71299;BME280;59083;47.974;21.722;2023-01-29T08:08:12;101247.56;;;0.75;80.55
71299;BME280;59083;47.974;21.722;2023-01-29T08:11:13;101243.69;;;0.80;80.40
71299;BME280;59083;47.974;21.722;2023-01-29T08:14:15;101243.28;;;0.99;79.78
71299;BME280;59083;47.974;21.722;2023-01-29T08:17:16;101243.00;;;0.91;79.94
71299;BME280;59083;47.974;21.722;2023-01-29T08:20:18;101236.59;;;0.95;80.02
71299;BME280;59083;47.974;21.722;2023-01-29T08:23:19;101241.91;;;0.81;80.57
71299;BME280;59083;47.974;21.722;2023-01-29T08:26:21;101251.06;;;0.88;80.54
71299;BME280;59083;47.974;21.722;2023-01-29T08:29:22;101253.50;;;0.91;80.12
71299;BME280;59083;47.974;21.722;2023-01-29T08:32:23;101268.47;;;0.89;79.18
71299;BME280;59083;47.974;21.722;2023-01-29T08:35:25;101267.44;;;0.79;80.15
71299;BME280;59083;47.974;21.722;2023-01-29T08:38:26;101271.31;;;0.86;79.92
71299;BME280;59083;47.974;21.722;2023-01-29T08:41:28;101272.38;;;0.96;79.78
71299;BME280;59083;47.974;21.722;2023-01-29T08:44:29;101287.91;;;0.99;80.03
71299;BME280;59083;47.974;21.722;2023-01-29T08:47:30;101280.75;;;0.89;80.24
71299;BME280;59083;47.974;21.722;2023-01-29T08:50:31;101289.16;;;0.94;80.69
71299;BME280;59083;47.974;21.722;2023-01-29T08:53:35;101293.56;;;0.93;81.44
71299;BME280;59083;47.974;21.722;2023-01-29T08:56:37;101302.56;;;0.76;82.61
71299;BME280;59083;47.974;21.722;2023-01-29T08:59:38;101299.84;;;0.78;82.87
71299;BME280;59083;47.974;21.722;2023-01-29T09:02:39;101295.53;;;0.77;82.83
71299;BME280;59083;47.974;21.722;2023-01-29T09:05:40;101298.41;;;0.99;81.92
71299;BME280;59083;47.974;21.722;2023-01-29T09:08:41;101296.94;;;0.95;82.26
71299;BME280;59083;47.974;21.722;2023-01-29T09:11:43;101292.72;;;0.93;81.84
71299;BME280;59083;47.974;21.722;2023-01-29T09:14:44;101300.81;;;0.90;81.33
71299;BME280;59083;47.974;21.722;2023-01-29T09:17:46;101305.66;;;0.96;80.65
71299;BME280;59083;47.974;21.722;2023-01-29T09:20:49;101305.34;;;1.00;80.03
71299;BME280;59083;47.974;21.722;2023-01-29T09:23:50;101304.28;;;0.90;79.62
71299;BME280;59083;47.974;21.722;2023-01-29T09:26:51;101309.31;;;0.93;79.64
71299;BME280;59083;47.974;21.722;2023-01-29T09:29:52;101313.94;;;1.02;79.30
71299;BME280;59083;47.974;21.722;2023-01-29T09:32:53;101314.38;;;0.96;79.20
71299;BME280;59083;47.974;21.722;2023-01-29T09:35:55;101316.25;;;0.94;78.80
71299;BME280;59083;47.974;21.722;2023-01-29T09:38:56;101316.66;;;0.88;78.71
71299;BME280;59083;47.974;21.722;2023-01-29T09:45:13;101319.62;;;0.96;78.41
71299;BME280;59083;47.974;21.722;2023-01-29T09:48:16;101317.38;;;1.03;78.12
71299;BME280;59083;47.974;21.722;2023-01-29T09:51:27;101318.03;;;1.06;77.56
71299;BME280;59083;47.974;21.722;2023-01-29T09:58:09;101313.41;;;0.97;77.95
71299;BME280;59083;47.974;21.722;2023-01-29T10:24:37;101323.78;;;0.99;76.16
71299;BME280;59083;47.974;21.722;2023-01-29T10:27:50;101318.13;;;0.92;75.53
71299;BME280;59083;47.974;21.722;2023-01-29T10:31:03;101332.84;;;1.07;75.69
71299;BME280;59083;47.974;21.722;2023-01-29T10:37:35;101302.19;;;1.20;74.91
71299;BME280;59083;47.974;21.722;2023-01-29T10:40:42;101317.94;;;1.20;75.19
71299;BME280;59083;47.974;21.722;2023-01-29T11:00:50;101294.81;;;0.88;74.76
71299;BME280;59083;47.974;21.722;2023-01-29T11:04:00;101287.03;;;0.86;75.07
71299;BME280;59083;47.974;21.722;2023-01-29T11:07:03;101288.84;;;0.98;74.84
71299;BME280;59083;47.974;21.722;2023-01-29T11:10:10;101287.50;;;1.05;74.72
71299;BME280;59083;47.974;21.722;2023-01-29T11:13:15;101277.22;;;1.02;74.63
71299;BME280;59083;47.974;21.722;2023-01-29T11:16:16;101279.28;;;1.10;74.28
71299;BME280;59083;47.974;21.722;2023-01-29T11:19:35;101268.38;;;1.03;73.71
71299;BME280;59083;47.974;21.722;2023-01-29T11:22:39;101261.25;;;1.05;73.95
71299;BME280;59083;47.974;21.722;2023-01-29T11:25:54;101257.69;;;1.06;73.33
71299;BME280;59083;47.974;21.722;2023-01-29T11:28:56;101259.56;;;1.04;73.82
71299;BME280;59083;47.974;21.722;2023-01-29T11:31:58;101261.88;;;1.09;73.84
71299;BME280;59083;47.974;21.722;2023-01-29T11:35:04;101253.47;;;1.04;73.71
71299;BME280;59083;47.974;21.722;2023-01-29T11:38:18;101245.94;;;1.12;73.50
71299;BME280;59083;47.974;21.722;2023-01-29T11:41:20;101247.47;;;1.14;73.76
71299;BME280;59083;47.974;21.722;2023-01-29T11:44:35;101238.16;;;1.10;73.94
71299;BME280;59083;47.974;21.722;2023-01-29T11:47:40;101235.66;;;0.96;74.13
71299;BME280;59083;47.974;21.722;2023-01-29T11:50:42;101225.75;;;0.87;74.68
71299;BME280;59083;47.974;21.722;2023-01-29T11:53:49;101228.50;;;1.11;74.54
71299;BME280;59083;47.974;21.722;2023-01-29T11:56:51;101230.59;;;1.06;73.93
71299;BME280;59083;47.974;21.722;2023-01-29T11:59:55;101225.78;;;1.00;74.20
71299;BME280;59083;47.974;21.722;2023-01-29T12:03:06;101213.16;;;1.05;73.46
71299;BME280;59083;47.974;21.722;2023-01-29T12:06:21;101214.94;;;1.17;73.61
71299;BME280;59083;47.974;21.722;2023-01-29T12:09:25;101206.03;;;1.07;72.16
71299;BME280;59083;47.974;21.722;2023-01-29T12:12:32;101205.81;;;1.10;72.43
71299;BME280;59083;47.974;21.722;2023-01-29T12:15:35;101205.19;;;1.06;71.85
71299;BME280;59083;47.974;21.722;2023-01-29T12:18:48;101198.06;;;0.96;71.59
71299;BME280;59083;47.974;21.722;2023-01-29T12:21:56;101204.16;;;0.83;71.29
71299;BME280;59083;47.974;21.722;2023-01-29T12:25:24;101195.53;;;0.81;71.78
71299;BME280;59083;47.974;21.722;2023-01-29T12:38:22;101204.97;;;1.09;70.93
71299;BME280;59083;47.974;21.722;2023-01-29T12:41:36;101197.22;;;1.08;70.51
71299;BME280;59083;47.974;21.722;2023-01-29T12:44:46;101193.84;;;1.18;70.60
71299;BME280;59083;47.974;21.722;2023-01-29T12:47:54;101191.56;;;1.01;71.09
71299;BME280;59083;47.974;21.722;2023-01-29T12:51:06;101185.06;;;0.94;70.54
71299;BME280;59083;47.974;21.722;2023-01-29T12:54:14;101183.16;;;0.96;70.53
71299;BME280;59083;47.974;21.722;2023-01-29T12:57:27;101173.38;;;1.11;70.69
71299;BME280;59083;47.974;21.722;2023-01-29T13:00:37;101173.69;;;1.19;70.16
71299;BME280;59083;47.974;21.722;2023-01-29T13:03:58;101169.72;;;1.13;70.41
71299;BME280;59083;47.974;21.722;2023-01-29T13:07:10;101178.19;;;1.30;70.55
71299;BME280;59083;47.974;21.722;2023-01-29T13:10:17;101176.81;;;1.24;70.25
71299;BME280;59083;47.974;21.722;2023-01-29T13:13:29;101182.19;;;1.22;70.53
71299;BME280;59083;47.974;21.722;2023-01-29T13:16:37;101179.25;;;1.14;70.87
71299;BME280;59083;47.974;21.722;2023-01-29T13:19:42;101178.81;;;1.20;70.60
71299;BME280;59083;47.974;21.722;2023-01-29T13:22:46;101170.84;;;1.09;70.73
71299;BME280;59083;47.974;21.722;2023-01-29T13:25:52;101176.41;;;1.17;70.62
71299;BME280;59083;47.974;21.722;2023-01-29T13:28:54;101164.47;;;1.13;70.81
71299;BME280;59083;47.974;21.722;2023-01-29T13:31:57;101160.16;;;1.12;70.77
71299;BME280;59083;47.974;21.722;2023-01-29T13:35:13;101167.28;;;1.10;71.26
71299;BME280;59083;47.974;21.722;2023-01-29T13:38:23;101156.03;;;1.21;70.62
71299;BME280;59083;47.974;21.722;2023-01-29T13:41:37;101152.47;;;1.22;70.12
71299;BME280;59083;47.974;21.722;2023-01-29T13:44:39;101150.59;;;1.11;69.71
71299;BME280;59083;47.974;21.722;2023-01-29T13:47:41;101151.13;;;1.16;69.60
71299;BME280;59083;47.974;21.722;2023-01-29T13:50:44;101153.22;;;1.11;69.39
71299;BME280;59083;47.974;21.722;2023-01-29T13:53:56;101152.47;;;1.22;69.64
71299;BME280;59083;47.974;21.722;2023-01-29T13:56:59;101144.25;;;1.27;69.27
71299;BME280;59083;47.974;21.722;2023-01-29T14:00:02;101148.38;;;1.31;68.86
71299;BME280;59083;47.974;21.722;2023-01-29T14:06:39;101153.53;;;1.19;69.63
71299;BME280;59083;47.974;21.722;2023-01-29T14:12:43;101142.41;;;1.03;69.67
71299;BME280;59083;47.974;21.722;2023-01-29T14:18:59;101145.75;;;1.18;69.48
71299;BME280;59083;47.974;21.722;2023-01-29T14:22:01;101140.62;;;1.16;69.40
71299;BME280;59083;47.974;21.722;2023-01-29T14:25:04;101139.66;;;1.17;69.55
71299;BME280;59083;47.974;21.722;2023-01-29T14:28:21;101121.66;;;1.00;70.03
71299;BME280;59083;47.974;21.722;2023-01-29T14:31:28;101123.75;;;1.08;70.07
71299;BME280;59083;47.974;21.722;2023-01-29T14:34:35;101128.34;;;1.04;70.05
71299;BME280;59083;47.974;21.722;2023-01-29T14:37:45;101136.56;;;0.87;70.45
71299;BME280;59083;47.974;21.722;2023-01-29T14:40:46;101137.59;;;0.97;70.15
71299;BME280;59083;47.974;21.722;2023-01-29T14:43:48;101132.25;;;0.86;70.89
71299;BME280;59083;47.974;21.722;2023-01-29T14:46:49;101135.72;;;0.87;70.72
71299;BME280;59083;47.974;21.722;2023-01-29T14:50:02;101142.31;;;0.92;70.77
71299;BME280;59083;47.974;21.722;2023-01-29T14:56:33;101147.47;;;0.94;70.84
71299;BME280;59083;47.974;21.722;2023-01-29T15:02:48;101151.16;;;0.91;71.25
71299;BME280;59083;47.974;21.722;2023-01-29T15:05:52;101138.25;;;0.88;70.59
71299;BME280;59083;47.974;21.722;2023-01-29T15:09:02;101144.16;;;0.79;70.32
71299;BME280;59083;47.974;21.722;2023-01-29T15:18:31;101154.00;;;0.88;70.29
71299;BME280;59083;47.974;21.722;2023-01-29T15:21:34;101156.63;;;0.88;70.51
71299;BME280;59083;47.974;21.722;2023-01-29T15:24:40;101153.16;;;0.88;70.42
71299;BME280;59083;47.974;21.722;2023-01-29T15:27:43;101153.25;;;0.86;70.21
71299;BME280;59083;47.974;21.722;2023-01-29T15:30:50;101155.69;;;0.89;70.02
71299;BME280;59083;47.974;21.722;2023-01-29T15:33:55;101155.03;;;0.86;70.21
71299;BME280;59083;47.974;21.722;2023-01-29T15:36:56;101153.47;;;0.83;70.60
71299;BME280;59083;47.974;21.722;2023-01-29T15:39:58;101157.12;;;0.80;70.50
71299;BME280;59083;47.974;21.722;2023-01-29T15:42:59;101156.09;;;0.83;70.40
71299;BME280;59083;47.974;21.722;2023-01-29T15:46:09;101166.59;;;0.83;70.53
71299;BME280;59083;47.974;21.722;2023-01-29T15:49:16;101168.47;;;0.81;70.79
71299;BME280;59083;47.974;21.722;2023-01-29T15:52:23;101177.09;;;0.83;70.66
71299;BME280;59083;47.974;21.722;2023-01-29T15:55:26;101171.84;;;0.83;71.17
71299;BME280;59083;47.974;21.722;2023-01-29T15:58:29;101180.44;;;0.85;71.59
71299;BME280;59083;47.974;21.722;2023-01-29T16:01:31;101183.78;;;0.87;72.27
71299;BME280;59083;47.974;21.722;2023-01-29T16:04:33;101186.63;;;0.84;72.87
71299;BME280;59083;47.974;21.722;2023-01-29T16:07:34;101187.47;;;0.72;73.38
71299;BME280;59083;47.974;21.722;2023-01-29T16:10:37;101186.31;;;0.76;73.66
71299;BME280;59083;47.974;21.722;2023-01-29T16:13:41;101182.53;;;0.80;73.45
71299;BME280;59083;47.974;21.722;2023-01-29T16:16:44;101186.13;;;0.79;73.31
71299;BME280;59083;47.974;21.722;2023-01-29T16:19:54;101180.34;;;0.74;72.40
71299;BME280;59083;47.974;21.722;2023-01-29T16:22:56;101185.47;;;0.75;72.48
71299;BME280;59083;47.974;21.722;2023-01-29T16:26:05;101193.00;;;0.80;72.71
71299;BME280;59083;47.974;21.722;2023-01-29T16:29:10;101193.88;;;0.68;72.17
71299;BME280;59083;47.974;21.722;2023-01-29T16:32:12;101190.63;;;0.77;71.89
71299;BME280;59083;47.974;21.722;2023-01-29T16:35:16;101194.91;;;0.78;71.81
71299;BME280;59083;47.974;21.722;2023-01-29T16:38:29;101201.19;;;0.75;72.22
71299;BME280;59083;47.974;21.722;2023-01-29T16:41:33;101207.94;;;0.79;72.03
71299;BME280;59083;47.974;21.722;2023-01-29T16:44:39;101211.69;;;0.75;72.43
71299;BME280;59083;47.974;21.722;2023-01-29T16:47:40;101219.69;;;0.74;73.56
71299;BME280;59083;47.974;21.722;2023-01-29T16:50:41;101214.22;;;0.77;73.91
71299;BME280;59083;47.974;21.722;2023-01-29T16:54:00;101205.84;;;0.72;74.18
71299;BME280;59083;47.974;21.722;2023-01-29T16:57:02;101200.34;;;0.75;74.04
71299;BME280;59083;47.974;21.722;2023-01-29T17:00:06;101198.72;;;0.74;73.81
71299;BME280;59083;47.974;21.722;2023-01-29T17:03:10;101202.28;;;0.73;nan
71299;BME280;59083;47.974;21.722;2023-01-29T17:06:20;101204.66;;;0.76;73.88
71299;BME280;59083;47.974;21.722;2023-01-29T17:09:26;101198.06;;;0.70;73.87
71299;BME280;59083;47.974;21.722;2023-01-29T17:12:30;101206.25;;;0.66;74.34
71299;BME280;59083;47.974;21.722;2023-01-29T17:18:35;101181.69;;;0.67;73.87
71299;BME280;59083;47.974;21.722;2023-01-29T17:21:36;101178.56;;;0.62;73.52
71299;BME280;59083;47.974;21.722;2023-01-29T17:24:37;101181.47;;;0.70;73.37
71299;BME280;59083;47.974;21.722;2023-01-29T17:27:42;101181.91;;;0.76;73.21
71299;BME280;59083;47.974;21.722;2023-01-29T17:30:45;101175.63;;;0.79;73.96
71299;BME280;59083;47.974;21.722;2023-01-29T17:33:46;101163.88;;;0.72;73.93
71299;BME280;59083;47.974;21.722;2023-01-29T17:36:48;101161.00;;;0.75;73.28
71299;BME280;59083;47.974;21.722;2023-01-29T17:39:49;101159.88;;;0.79;72.43
71299;BME280;59083;47.974;21.722;2023-01-29T17:42:50;101155.56;;;0.78;72.60
71299;BME280;59083;47.974;21.722;2023-01-29T17:45:52;101148.56;;;0.78;72.44
71299;BME280;59083;47.974;21.722;2023-01-29T17:48:53;101145.78;;;0.80;72.84
71299;BME280;59083;47.974;21.722;2023-01-29T17:51:55;101141.72;;;0.76;72.55
71299;BME280;59083;47.974;21.722;2023-01-29T17:54:57;101137.63;;;0.72;72.49
71299;BME280;59083;47.974;21.722;2023-01-29T17:57:58;101146.25;;;0.74;72.22
71299;BME280;59083;47.974;21.722;2023-01-29T18:00:59;101143.91;;;0.69;72.40
71299;BME280;59083;47.974;21.722;2023-01-29T18:04:00;101142.47;;;0.78;72.70
71299;BME280;59083;47.974;21.722;2023-01-29T18:07:01;101140.16;;;0.73;72.89
71299;BME280;59083;47.974;21.722;2023-01-29T18:10:03;101142.88;;;0.72;73.04
71299;BME280;59083;47.974;21.722;2023-01-29T18:13:05;101141.81;;;0.74;73.12
71299;BME280;59083;47.974;21.722;2023-01-29T18:16:06;101147.28;;;0.71;73.36
71299;BME280;59083;47.974;21.722;2023-01-29T18:19:21;101149.16;;;0.69;73.55
71299;BME280;59083;47.974;21.722;2023-01-29T18:22:23;101139.50;;;0.70;73.67
71299;BME280;59083;47.974;21.722;2023-01-29T18:25:24;101144.56;;;0.73;73.72